NIUENFTF

Guest
Details From NIUE - Niue
To NFTF - Fua Amotu Intl
Flight Number -
Tags generated
Created
Modified
Stats Distance 323 nm / 599 km
Max Altitude 4,900 ft / 1,494 m
Waypoints 4
Social Downloads 1
Likes 0
Share VATSIM

Download

Looking for another format? Having issues loading an existing format? Contact us
Advertisement - Login to hide

Notes

Basic altitude profile: - Ascent Rate: 2500ft/min - Ascent Speed: 250kts - Cruise Altitude: 35000ft - Cruise Speed: 420kts - Descent Rate: 1500ft/min - Descent Speed: 250kts Options: - Use NATs: yes - Use PACOTS: yes - Use low airways: yes - Use high airways: yes

Route

NIUE NU A584 TBU NFTF

ID Type Via Altitude Latitude Longitude Leg Dist Tot Dist Heading (true) Name
O NIUE APT - 0 ft / 0 m -19.07901˚ -169.92577˚ - 0 nm - Niue
NU NDB - 200 ft / 61 m -19.07364˚ -169.91714˚ 0 nm 0 nm 57° / 57° NIUE NDB
TBU VOR A584 (AWY-LO) 4,900 ft / 1,494 m -21.24417˚ -175.14861˚ 322 nm 323 nm 245° / 247° FUA AMOTU VOR-DME
O NFTF APT - 0 ft / 0 m -21.24249˚ -175.14457˚ 0 nm 323 nm 66° / 66° Fua Amotu Intl

Altitude Profile

Advertisement - Login to hide

Weather


0- 5 10 15 20 25 30 35+ Temperature / ° C

Clouds and Precipitation
Forecast for 2017-12-14 00:00 UTC. Updated 2 hours ago

Ground ~20,000 ft ~40,000 ft Winds

NIUE

Details ICAO NIUE (IUE)
Name Niue
Region Niue
Timezone Pacific/Niue (UTC-11.0)
Stats Elevation 209 ft / 64 m (AMSL)
Location -19.079010° -169.925766°
Runways 1
Magnetic Variation 13.078° E

METAR

NIUE 132000Z 18008KT 9999 FEW018 SCT030 SCT110 27/20 Q1009

Decode

TAF

TAF NIUE 131700Z 1318/1418 17007KT 9999 SCT018 BKN030 PROB30 TEMPO 1409/1415 5000 SHRA BKN015

Decode

Departure Runways

ID Width Length Bearing (true) Bearing (mag) Surface Threshold Offset Overrun Length
10 148 ft / 45 m 7,644 ft / 2,330 m 109.90° 96.82° Asphalt 0 ft / 0 m 0 ft / 0 m
28 148 ft / 45 m 7,644 ft / 2,330 m 289.90° 276.82° Asphalt 0 ft / 0 m 0 ft / 0 m

NFTF

Details ICAO NFTF (TBU)
Name Fua Amotu Intl
Region Fiji and Tonga
Timezone Pacific/Tongatapu (UTC+14.0)
Stats Elevation 126 ft / 38 m (AMSL)
Location -21.242493° -175.144569°
Runways 2
Magnetic Variation 13.665° E

METAR

NFTF 132000Z 00000KT 9999 SCT016 BKN100 25/19 Q1011

Decode

TAF

TAF NFTF 131700Z 1318/1418 15007KT 9999 FEW007 SCT017 BKN045

Decode

Destination Runways

ID Width Length Bearing (true) Bearing (mag) Surface Threshold Offset Overrun Length
11 148 ft / 45 m 8,967 ft / 2,733 m 122.10° 108.43° Asphalt 0 ft / 0 m 194 ft / 59 m
17 194 ft / 59 m 4,960 ft / 1,512 m 182.40° 168.73° Unknown 0 ft / 0 m 0 ft / 0 m
29 148 ft / 45 m 8,967 ft / 2,733 m 302.09° 288.42° Asphalt 0 ft / 0 m 194 ft / 59 m
35 194 ft / 59 m 4,960 ft / 1,512 m 2.40° 348.73° Unknown 0 ft / 0 m 0 ft / 0 m